sensor_id;sensor_type;location;lat;lon;timestamp;pressure;altitude;pressure_sealevel;temperature;humidity
7168;BME280;3625;51.762;14.320;2023-01-25T00:00:52;102924.53;;;2.27;100.00
7168;BME280;3625;51.762;14.320;2023-01-25T00:03:22;102780.47;;;1.34;100.00
7168;BME280;3625;51.762;14.320;2023-01-25T00:05:58;102925.19;;;2.23;100.00
7168;BME280;3625;51.762;14.320;2023-01-25T00:08:27;102906.06;;;2.07;100.00
7168;BME280;3625;51.762;14.320;2023-01-25T00:10:56;102920.13;;;2.26;100.00
7168;BME280;3625;51.762;14.320;2023-01-25T00:13:25;102908.84;;;2.27;100.00
7168;BME280;3625;51.762;14.320;2023-01-25T00:15:59;102915.72;;;2.25;100.00
7168;BME280;3625;51.762;14.320;2023-01-25T00:18:29;102893.16;;;2.10;100.00
7168;BME280;3625;51.762;14.320;2023-01-25T00:20:58;102909.28;;;2.19;100.00
7168;BME280;3625;51.762;14.320;2023-01-25T00:23:26;102897.81;;;2.15;100.00
7168;BME280;3625;51.762;14.320;2023-01-25T00:25:58;102897.63;;;2.12;100.00
7168;BME280;3625;51.762;14.320;2023-01-25T00:28:26;102896.97;;;2.16;100.00
7168;BME280;3625;51.762;14.320;2023-01-25T00:30:58;102889.47;;;2.22;100.00
7168;BME280;3625;51.762;14.320;2023-01-25T00:33:43;102888.13;;;2.31;100.00
7168;BME280;3625;51.762;14.320;2023-01-25T00:36:32;102825.25;;;2.10;100.00
7168;BME280;3625;51.762;14.320;2023-01-25T00:39:04;102874.09;;;2.46;100.00
7168;BME280;3625;51.762;14.320;2023-01-25T00:41:33;102814.53;;;2.21;100.00
7168;BME280;3625;51.762;14.320;2023-01-25T00:44:02;102862.09;;;2.50;100.00
7168;BME280;3625;51.762;14.320;2023-01-25T00:46:31;102839.84;;;2.40;100.00
7168;BME280;3625;51.762;14.320;2023-01-25T00:49:01;102864.56;;;2.47;100.00
7168;BME280;3625;51.762;14.320;2023-01-25T00:51:30;102857.31;;;2.23;100.00
7168;BME280;3625;51.762;14.320;2023-01-25T00:53:59;102854.06;;;2.11;100.00
7168;BME280;3625;51.762;14.320;2023-01-25T00:56:27;102853.63;;;2.20;100.00
7168;BME280;3625;51.762;14.320;2023-01-25T00:58:56;102852.00;;;2.22;100.00
7168;BME280;3625;51.762;14.320;2023-01-25T01:01:25;102802.19;;;2.01;100.00
7168;BME280;3625;51.762;14.320;2023-01-25T01:03:53;102624.63;;;0.95;100.00
7168;BME280;3625;51.762;14.320;2023-01-25T01:06:23;102834.38;;;2.18;100.00
7168;BME280;3625;51.762;14.320;2023-01-25T01:08:52;102827.59;;;2.21;100.00
7168;BME280;3625;51.762;14.320;2023-01-25T01:11:22;102827.06;;;2.28;100.00
7168;BME280;3625;51.762;14.320;2023-01-25T01:13:51;102813.50;;;2.36;100.00
7168;BME280;3625;51.762;14.320;2023-01-25T01:16:19;102770.06;;;2.20;100.00
7168;BME280;3625;51.762;14.320;2023-01-25T01:18:51;102814.00;;;2.46;100.00
7168;BME280;3625;51.762;14.320;2023-01-25T01:21:21;102809.00;;;2.51;100.00
7168;BME280;3625;51.762;14.320;2023-01-25T01:23:52;102813.72;;;2.58;100.00
7168;BME280;3625;51.762;14.320;2023-01-25T01:26:21;102804.28;;;2.61;100.00
7168;BME280;3625;51.762;14.320;2023-01-25T01:28:50;102800.13;;;2.65;100.00
7168;BME280;3625;51.762;14.320;2023-01-25T01:31:22;102797.66;;;2.68;100.00
7168;BME280;3625;51.762;14.320;2023-01-25T01:34:02;102789.81;;;2.68;100.00
7168;BME280;3625;51.762;14.320;2023-01-25T01:36:31;102707.47;;;2.21;100.00
7168;BME280;3625;51.762;14.320;2023-01-25T01:39:02;102790.66;;;2.67;100.00
7168;BME280;3625;51.762;14.320;2023-01-25T01:41:31;102789.38;;;2.59;100.00
7168;BME280;3625;51.762;14.320;2023-01-25T01:43:59;102780.56;;;2.57;100.00
7168;BME280;3625;51.762;14.320;2023-01-25T01:46:32;102697.56;;;2.14;100.00
7168;BME280;3625;51.762;14.320;2023-01-25T01:49:14;102786.16;;;2.64;100.00
7168;BME280;3625;51.762;14.320;2023-01-25T01:51:48;102588.78;;;1.60;100.00
7168;BME280;3625;51.762;14.320;2023-01-25T01:54:30;102774.81;;;2.64;100.00
7168;BME280;3625;51.762;14.320;2023-01-25T01:57:11;102748.41;;;2.40;100.00
7168;BME280;3625;51.762;14.320;2023-01-25T01:59:48;102779.22;;;2.65;100.00
7168;BME280;3625;51.762;14.320;2023-01-25T02:02:21;102778.97;;;2.60;100.00
7168;BME280;3625;51.762;14.320;2023-01-25T02:04:55;102781.13;;;2.69;100.00
7168;BME280;3625;51.762;14.320;2023-01-25T02:07:32;102770.47;;;2.64;100.00
7168;BME280;3625;51.762;14.320;2023-01-25T02:10:07;102776.59;;;2.65;100.00
7168;BME280;3625;51.762;14.320;2023-01-25T02:12:38;102774.72;;;2.62;100.00
7168;BME280;3625;51.762;14.320;2023-01-25T02:15:09;102735.44;;;2.42;100.00
7168;BME280;3625;51.762;14.320;2023-01-25T02:17:40;102766.88;;;2.62;100.00
7168;BME280;3625;51.762;14.320;2023-01-25T02:20:21;102767.88;;;2.64;100.00
7168;BME280;3625;51.762;14.320;2023-01-25T02:23:00;102679.19;;;2.13;100.00
7168;BME280;3625;51.762;14.320;2023-01-25T02:25:32;102728.53;;;2.44;100.00
7168;BME280;3625;51.762;14.320;2023-01-25T02:28:06;102768.69;;;2.63;100.00
7168;BME280;3625;51.762;14.320;2023-01-25T02:30:36;102735.72;;;2.48;100.00
7168;BME280;3625;51.762;14.320;2023-01-25T02:33:05;102543.25;;;1.36;100.00
7168;BME280;3625;51.762;14.320;2023-01-25T02:35:40;102769.66;;;2.65;100.00
7168;BME280;3625;51.762;14.320;2023-01-25T02:38:13;102730.22;;;2.42;100.00
7168;BME280;3625;51.762;14.320;2023-01-25T02:40:48;102776.44;;;2.62;100.00
7168;BME280;3625;51.762;14.320;2023-01-25T02:43:26;102770.34;;;2.44;100.00
7168;BME280;3625;51.762;14.320;2023-01-25T02:46:02;102771.41;;;2.30;100.00
7168;BME280;3625;51.762;14.320;2023-01-25T02:48:32;102766.84;;;2.25;100.00
7168;BME280;3625;51.762;14.320;2023-01-25T02:51:01;102767.72;;;2.26;100.00
7168;BME280;3625;51.762;14.320;2023-01-25T02:53:29;102773.28;;;2.32;100.00
7168;BME280;3625;51.762;14.320;2023-01-25T02:56:00;102712.41;;;1.98;100.00
7168;BME280;3625;51.762;14.320;2023-01-25T02:58:32;102650.28;;;1.73;100.00
7168;BME280;3625;51.762;14.320;2023-01-25T03:01:01;102759.97;;;2.45;100.00
7168;BME280;3625;51.762;14.320;2023-01-25T03:03:30;102760.78;;;2.44;100.00
7168;BME280;3625;51.762;14.320;2023-01-25T03:05:59;102755.66;;;2.46;100.00
7168;BME280;3625;51.762;14.320;2023-01-25T03:08:29;102760.06;;;2.47;100.00
7168;BME280;3625;51.762;14.320;2023-01-25T03:11:00;102760.22;;;2.50;100.00
7168;BME280;3625;51.762;14.320;2023-01-25T03:13:31;102743.91;;;2.55;100.00
7168;BME280;3625;51.762;14.320;2023-01-25T03:16:02;102750.50;;;2.47;100.00
7168;BME280;3625;51.762;14.320;2023-01-25T03:18:32;102746.38;;;2.35;100.00
7168;BME280;3625;51.762;14.320;2023-01-25T03:21:07;102752.44;;;2.34;100.00
7168;BME280;3625;51.762;14.320;2023-01-25T03:23:36;102745.56;;;2.36;100.00
7168;BME280;3625;51.762;14.320;2023-01-25T03:26:10;102588.63;;;1.39;100.00
7168;BME280;3625;51.762;14.320;2023-01-25T03:28:54;102753.50;;;2.37;100.00
7168;BME280;3625;51.762;14.320;2023-01-25T03:31:23;102750.34;;;2.44;100.00
7168;BME280;3625;51.762;14.320;2023-01-25T03:33:52;102750.25;;;2.43;100.00
7168;BME280;3625;51.762;14.320;2023-01-25T03:36:25;102747.97;;;2.49;100.00
7168;BME280;3625;51.762;14.320;2023-01-25T03:38:54;102753.09;;;2.47;100.00
7168;BME280;3625;51.762;14.320;2023-01-25T03:41:24;102710.97;;;2.22;100.00
7168;BME280;3625;51.762;14.320;2023-01-25T03:43:56;102741.47;;;2.41;100.00
7168;BME280;3625;51.762;14.320;2023-01-25T03:46:26;102737.19;;;2.43;100.00
7168;BME280;3625;51.762;14.320;2023-01-25T03:48:55;102734.81;;;2.47;100.00
7168;BME280;3625;51.762;14.320;2023-01-25T03:51:27;102731.50;;;2.51;100.00
7168;BME280;3625;51.762;14.320;2023-01-25T03:53:56;102717.28;;;2.45;100.00
7168;BME280;3625;51.762;14.320;2023-01-25T03:56:28;102721.84;;;2.49;100.00
7168;BME280;3625;51.762;14.320;2023-01-25T03:59:04;102720.28;;;2.35;100.00
7168;BME280;3625;51.762;14.320;2023-01-25T04:01:33;102677.56;;;2.15;100.00
7168;BME280;3625;51.762;14.320;2023-01-25T04:04:02;102713.69;;;2.43;100.00
7168;BME280;3625;51.762;14.320;2023-01-25T04:06:32;102688.38;;;2.22;100.00
7168;BME280;3625;51.762;14.320;2023-01-25T04:09:02;102711.22;;;2.46;100.00
7168;BME280;3625;51.762;14.320;2023-01-25T04:11:41;102709.72;;;2.51;100.00
7168;BME280;3625;51.762;14.320;2023-01-25T04:14:11;102673.34;;;2.36;100.00
7168;BME280;3625;51.762;14.320;2023-01-25T04:16:50;102635.09;;;2.19;100.00
7168;BME280;3625;51.762;14.320;2023-01-25T04:19:24;102704.28;;;2.46;100.00
7168;BME280;3625;51.762;14.320;2023-01-25T04:21:57;102623.78;;;2.01;100.00
7168;BME280;3625;51.762;14.320;2023-01-25T04:24:32;102650.56;;;2.14;100.00
7168;BME280;3625;51.762;14.320;2023-01-25T04:27:04;102643.38;;;2.10;100.00
7168;BME280;3625;51.762;14.320;2023-01-25T04:29:39;102593.47;;;1.85;100.00
7168;BME280;3625;51.762;14.320;2023-01-25T04:32:14;102695.56;;;2.46;100.00
7168;BME280;3625;51.762;14.320;2023-01-25T04:34:42;102609.97;;;2.03;100.00
7168;BME280;3625;51.762;14.320;2023-01-25T04:37:18;102665.66;;;2.39;100.00
7168;BME280;3625;51.762;14.320;2023-01-25T04:39:52;102681.41;;;2.60;100.00
7168;BME280;3625;51.762;14.320;2023-01-25T04:42:24;102685.22;;;2.67;100.00
7168;BME280;3625;51.762;14.320;2023-01-25T04:44:55;102672.22;;;2.68;100.00
7168;BME280;3625;51.762;14.320;2023-01-25T04:47:26;102607.59;;;2.27;100.00
7168;BME280;3625;51.762;14.320;2023-01-25T04:49:55;102560.53;;;2.06;100.00
7168;BME280;3625;51.762;14.320;2023-01-25T04:52:28;102676.66;;;2.71;100.00
7168;BME280;3625;51.762;14.320;2023-01-25T04:54:56;102671.38;;;2.69;100.00
7168;BME280;3625;51.762;14.320;2023-01-25T04:57:27;102664.50;;;2.71;100.00
7168;BME280;3625;51.762;14.320;2023-01-25T04:59:57;102655.00;;;2.73;100.00
7168;BME280;3625;51.762;14.320;2023-01-25T05:02:27;102654.19;;;2.74;100.00
7168;BME280;3625;51.762;14.320;2023-01-25T05:04:55;102644.63;;;2.75;100.00
7168;BME280;3625;51.762;14.320;2023-01-25T05:07:24;102593.81;;;2.49;100.00
7168;BME280;3625;51.762;14.320;2023-01-25T05:09:53;102646.63;;;2.80;100.00
7168;BME280;3625;51.762;14.320;2023-01-25T05:12:23;102587.88;;;2.53;100.00
7168;BME280;3625;51.762;14.320;2023-01-25T05:15:01;102622.75;;;2.73;100.00
7168;BME280;3625;51.762;14.320;2023-01-25T05:17:30;102630.03;;;2.80;100.00
7168;BME280;3625;51.762;14.320;2023-01-25T05:19:59;102646.06;;;2.87;100.00
7168;BME280;3625;51.762;14.320;2023-01-25T05:22:28;102649.63;;;2.89;100.00
7168;BME280;3625;51.762;14.320;2023-01-25T05:24:56;102650.53;;;2.90;100.00
7168;BME280;3625;51.762;14.320;2023-01-25T05:27:28;102646.94;;;2.88;100.00
7168;BME280;3625;51.762;14.320;2023-01-25T05:29:56;102658.38;;;2.90;100.00
7168;BME280;3625;51.762;14.320;2023-01-25T05:32:36;102437.13;;;1.52;100.00
7168;BME280;3625;51.762;14.320;2023-01-25T05:35:07;102405.97;;;1.36;100.00
7168;BME280;3625;51.762;14.320;2023-01-25T05:37:38;102653.00;;;2.87;100.00
7168;BME280;3625;51.762;14.320;2023-01-25T05:40:13;102648.66;;;2.87;100.00
7168;BME280;3625;51.762;14.320;2023-01-25T05:42:43;102649.56;;;2.88;100.00
7168;BME280;3625;51.762;14.320;2023-01-25T05:45:16;102646.13;;;2.89;100.00
7168;BME280;3625;51.762;14.320;2023-01-25T05:47:51;102484.75;;;1.85;100.00
7168;BME280;3625;51.762;14.320;2023-01-25T05:50:21;102647.59;;;2.82;100.00
7168;BME280;3625;51.762;14.320;2023-01-25T05:52:57;102471.63;;;1.84;100.00
7168;BME280;3625;51.762;14.320;2023-01-25T05:55:29;102646.84;;;2.85;100.00
7168;BME280;3625;51.762;14.320;2023-01-25T05:58:03;102641.53;;;2.83;100.00
7168;BME280;3625;51.762;14.320;2023-01-25T06:00:32;102644.81;;;2.79;100.00
7168;BME280;3625;51.762;14.320;2023-01-25T06:03:06;102635.19;;;2.78;100.00
7168;BME280;3625;51.762;14.320;2023-01-25T06:05:40;102636.97;;;2.79;100.00
7168;BME280;3625;51.762;14.320;2023-01-25T06:08:10;102635.34;;;2.81;100.00
7168;BME280;3625;51.762;14.320;2023-01-25T06:10:48;102481.88;;;1.99;100.00
7168;BME280;3625;51.762;14.320;2023-01-25T06:13:17;102589.84;;;2.57;100.00
7168;BME280;3625;51.762;14.320;2023-01-25T06:15:54;102623.91;;;2.79;100.00
7168;BME280;3625;51.762;14.320;2023-01-25T06:18:45;102636.50;;;2.88;100.00
7168;BME280;3625;51.762;14.320;2023-01-25T06:21:23;102603.41;;;2.69;100.00
7168;BME280;3625;51.762;14.320;2023-01-25T06:23:53;102603.56;;;2.72;100.00
7168;BME280;3625;51.762;14.320;2023-01-25T06:26:21;102616.91;;;2.78;100.00
7168;BME280;3625;51.762;14.320;2023-01-25T06:28:50;102636.31;;;2.83;100.00
7168;BME280;3625;51.762;14.320;2023-01-25T06:31:19;102622.41;;;2.65;100.00
7168;BME280;3625;51.762;14.320;2023-01-25T06:33:51;102604.94;;;2.45;100.00
7168;BME280;3625;51.762;14.320;2023-01-25T06:36:22;102628.63;;;2.67;100.00
7168;BME280;3625;51.762;14.320;2023-01-25T06:38:51;102533.31;;;2.20;100.00
7168;BME280;3625;51.762;14.320;2023-01-25T06:41:20;102368.06;;;1.25;100.00
7168;BME280;3625;51.762;14.320;2023-01-25T06:43:50;102620.31;;;2.77;100.00
7168;BME280;3625;51.762;14.320;2023-01-25T06:46:19;102619.47;;;2.77;100.00
7168;BME280;3625;51.762;14.320;2023-01-25T06:48:49;102613.47;;;2.79;100.00
7168;BME280;3625;51.762;14.320;2023-01-25T06:51:18;102609.06;;;2.78;100.00
7168;BME280;3625;51.762;14.320;2023-01-25T06:53:47;102609.06;;;2.78;100.00
7168;BME280;3625;51.762;14.320;2023-01-25T06:56:18;102556.34;;;2.48;100.00
7168;BME280;3625;51.762;14.320;2023-01-25T06:58:48;102604.47;;;2.73;100.00
7168;BME280;3625;51.762;14.320;2023-01-25T07:01:19;102599.88;;;2.67;100.00
7168;BME280;3625;51.762;14.320;2023-01-25T07:03:50;102600.22;;;2.55;100.00
7168;BME280;3625;51.762;14.320;2023-01-25T07:06:20;102590.25;;;2.47;100.00
7168;BME280;3625;51.762;14.320;2023-01-25T07:08:49;102533.47;;;2.23;100.00
7168;BME280;3625;51.762;14.320;2023-01-25T07:11:18;102595.31;;;2.63;100.00
7168;BME280;3625;51.762;14.320;2023-01-25T07:13:47;102583.38;;;2.68;100.00
7168;BME280;3625;51.762;14.320;2023-01-25T07:16:18;102538.75;;;2.44;100.00
7168;BME280;3625;51.762;14.320;2023-01-25T07:18:47;102576.47;;;2.70;100.00
7168;BME280;3625;51.762;14.320;2023-01-25T07:21:20;102562.59;;;2.52;100.00
7168;BME280;3625;51.762;14.320;2023-01-25T07:23:49;102539.53;;;2.42;100.00
7168;BME280;3625;51.762;14.320;2023-01-25T07:26:22;102574.56;;;2.66;100.00
7168;BME280;3625;51.762;14.320;2023-01-25T07:28:52;102543.47;;;2.53;100.00
7168;BME280;3625;51.762;14.320;2023-01-25T07:31:21;102572.28;;;2.74;100.00
7168;BME280;3625;51.762;14.320;2023-01-25T07:33:51;102566.34;;;2.78;100.00
7168;BME280;3625;51.762;14.320;2023-01-25T07:36:26;102563.19;;;2.85;100.00
7168;BME280;3625;51.762;14.320;2023-01-25T07:38:56;102512.28;;;2.56;100.00
7168;BME280;3625;51.762;14.320;2023-01-25T07:41:27;102250.72;;;1.06;100.00
7168;BME280;3625;51.762;14.320;2023-01-25T07:43:55;102558.84;;;2.85;100.00
7168;BME280;3625;51.762;14.320;2023-01-25T07:46:40;102556.25;;;2.85;100.00
7168;BME280;3625;51.762;14.320;2023-01-25T07:49:09;102518.91;;;2.69;100.00
7168;BME280;3625;51.762;14.320;2023-01-25T07:51:38;102551.25;;;2.91;100.00
7168;BME280;3625;51.762;14.320;2023-01-25T07:54:10;102552.34;;;2.96;100.00
7168;BME280;3625;51.762;14.320;2023-01-25T07:56:39;102553.44;;;3.01;100.00
7168;BME280;3625;51.762;14.320;2023-01-25T07:59:11;102523.13;;;2.86;100.00
7168;BME280;3625;51.762;14.320;2023-01-25T08:01:40;102542.91;;;3.00;100.00
7168;BME280;3625;51.762;14.320;2023-01-25T08:04:09;102544.63;;;2.99;100.00
7168;BME280;3625;51.762;14.320;2023-01-25T08:06:38;102421.28;;;2.26;100.00
7168;BME280;3625;51.762;14.320;2023-01-25T08:09:11;102553.38;;;3.00;100.00
7168;BME280;3625;51.762;14.320;2023-01-25T08:11:41;102499.09;;;2.74;100.00
7168;BME280;3625;51.762;14.320;2023-01-25T08:14:10;102555.09;;;2.99;100.00
7168;BME280;3625;51.762;14.320;2023-01-25T08:16:39;102553.38;;;3.00;100.00
7168;BME280;3625;51.762;14.320;2023-01-25T08:19:09;102548.22;;;3.01;100.00
7168;BME280;3625;51.762;14.320;2023-01-25T08:21:39;102524.47;;;2.97;100.00
7168;BME280;3625;51.762;14.320;2023-01-25T08:24:08;102546.03;;;3.12;100.00
7168;BME280;3625;51.762;14.320;2023-01-25T08:26:37;102546.91;;;3.13;100.00
7168;BME280;3625;51.762;14.320;2023-01-25T08:29:05;102543.31;;;3.09;100.00
7168;BME280;3625;51.762;14.320;2023-01-25T08:31:35;102538.81;;;3.07;100.00
7168;BME280;3625;51.762;14.320;2023-01-25T08:34:04;102479.97;;;2.75;100.00
7168;BME280;3625;51.762;14.320;2023-01-25T08:36:33;102546.53;;;3.03;100.00
7168;BME280;3625;51.762;14.320;2023-01-25T08:39:06;102520.66;;;2.89;100.00
7168;BME280;3625;51.762;14.320;2023-01-25T08:41:35;102471.50;;;2.59;100.00
7168;BME280;3625;51.762;14.320;2023-01-25T08:44:04;102467.13;;;2.60;100.00
7168;BME280;3625;51.762;14.320;2023-01-25T08:46:33;102512.06;;;2.91;100.00
7168;BME280;3625;51.762;14.320;2023-01-25T08:49:02;102499.81;;;2.90;100.00
7168;BME280;3625;51.762;14.320;2023-01-25T08:51:32;102496.75;;;3.00;100.00
7168;BME280;3625;51.762;14.320;2023-01-25T08:54:11;102528.22;;;3.24;100.00
7168;BME280;3625;51.762;14.320;2023-01-25T08:56:40;102512.53;;;3.24;100.00
7168;BME280;3625;51.762;14.320;2023-01-25T08:59:10;102465.09;;;2.94;100.00
7168;BME280;3625;51.762;14.320;2023-01-25T09:01:39;102517.69;;;3.23;100.00
7168;BME280;3625;51.762;14.320;2023-01-25T09:04:08;102518.47;;;3.20;100.00
7168;BME280;3625;51.762;14.320;2023-01-25T09:06:36;102518.44;;;3.19;100.00
7168;BME280;3625;51.762;14.320;2023-01-25T09:09:07;102519.34;;;3.21;100.00
7168;BME280;3625;51.762;14.320;2023-01-25T09:11:36;102517.47;;;3.17;100.00
7168;BME280;3625;51.762;14.320;2023-01-25T09:14:06;102515.84;;;3.20;100.00
7168;BME280;3625;51.762;14.320;2023-01-25T09:16:35;102482.25;;;3.09;100.00
7168;BME280;3625;51.762;14.320;2023-01-25T09:19:05;102512.72;;;3.29;100.00
7168;BME280;3625;51.762;14.320;2023-01-25T09:21:34;102473.44;;;3.07;100.00
7168;BME280;3625;51.762;14.320;2023-01-25T09:24:04;102507.84;;;3.38;100.00
7168;BME280;3625;51.762;14.320;2023-01-25T09:26:38;102502.75;;;3.41;100.00
7168;BME280;3625;51.762;14.320;2023-01-25T09:29:10;102468.84;;;3.22;100.00
7168;BME280;3625;51.762;14.320;2023-01-25T09:31:40;102521.19;;;3.44;100.00
7168;BME280;3625;51.762;14.320;2023-01-25T09:34:28;102512.53;;;3.45;100.00
7168;BME280;3625;51.762;14.320;2023-01-25T09:36:57;102516.06;;;3.47;100.00
7168;BME280;3625;51.762;14.320;2023-01-25T09:39:25;102511.66;;;3.46;100.00
7168;BME280;3625;51.762;14.320;2023-01-25T09:42:33;102514.41;;;3.49;100.00
7168;BME280;3625;51.762;14.320;2023-01-25T09:45:29;102502.28;;;3.51;100.00
7168;BME280;3625;51.762;14.320;2023-01-25T09:48:12;102410.41;;;2.99;100.00
7168;BME280;3625;51.762;14.320;2023-01-25T09:51:12;102503.94;;;3.49;100.00
7168;BME280;3625;51.762;14.320;2023-01-25T09:53:49;102501.44;;;3.52;100.00
7168;BME280;3625;51.762;14.320;2023-01-25T09:56:24;102506.63;;;3.51;100.00
7168;BME280;3625;51.762;14.320;2023-01-25T09:58:58;102447.91;;;3.22;100.00
7168;BME280;3625;51.762;14.320;2023-01-25T10:01:40;102499.66;;;3.51;100.00
7168;BME280;3625;51.762;14.320;2023-01-25T10:04:16;102452.22;;;3.20;100.00
7168;BME280;3625;51.762;14.320;2023-01-25T10:06:51;102470.84;;;3.29;100.00
7168;BME280;3625;51.762;14.320;2023-01-25T10:09:38;102460.16;;;3.23;100.00
7168;BME280;3625;51.762;14.320;2023-01-25T10:12:18;102434.44;;;3.11;100.00
7168;BME280;3625;51.762;14.320;2023-01-25T10:14:49;102454.03;;;3.22;100.00
7168;BME280;3625;51.762;14.320;2023-01-25T10:17:27;102402.31;;;2.93;100.00
7168;BME280;3625;51.762;14.320;2023-01-25T10:20:19;102370.22;;;2.75;100.00
7168;BME280;3625;51.762;14.320;2023-01-25T10:23:04;102475.56;;;3.37;100.00
7168;BME280;3625;51.762;14.320;2023-01-25T10:25:40;102481.06;;;3.44;100.00
7168;BME280;3625;51.762;14.320;2023-01-25T10:28:33;102463.09;;;3.53;100.00
7168;BME280;3625;51.762;14.320;2023-01-25T10:31:16;102430.53;;;3.46;100.00
7168;BME280;3625;51.762;14.320;2023-01-25T10:33:47;102453.75;;;3.59;100.00
7168;BME280;3625;51.762;14.320;2023-01-25T10:36:22;102444.22;;;3.61;100.00
7168;BME280;3625;51.762;14.320;2023-01-25T10:38:55;102443.44;;;3.64;100.00
7168;BME280;3625;51.762;14.320;2023-01-25T10:41:35;102393.41;;;3.32;100.00
7168;BME280;3625;51.762;14.320;2023-01-25T10:44:11;102445.91;;;3.59;100.00
7168;BME280;3625;51.762;14.320;2023-01-25T10:46:58;102436.13;;;3.55;100.00
7168;BME280;3625;51.762;14.320;2023-01-25T10:49:38;102432.41;;;3.49;100.00
7168;BME280;3625;51.762;14.320;2023-01-25T10:52:19;102364.13;;;3.19;100.00
7168;BME280;3625;51.762;14.320;2023-01-25T10:55:10;102418.53;;;3.51;100.00
7168;BME280;3625;51.762;14.320;2023-01-25T10:57:43;102375.75;;;3.27;100.00
7168;BME280;3625;51.762;14.320;2023-01-25T11:00:24;102413.31;;;3.51;100.00
7168;BME280;3625;51.762;14.320;2023-01-25T11:02:58;102405.47;;;3.51;100.00
7168;BME280;3625;51.762;14.320;2023-01-25T11:05:31;102357.75;;;3.34;100.00
7168;BME280;3625;51.762;14.320;2023-01-25T11:08:22;102387.59;;;3.63;100.00
7168;BME280;3625;51.762;14.320;2023-01-25T11:10:52;102387.81;;;3.69;100.00
7168;BME280;3625;51.762;14.320;2023-01-25T11:13:25;102365.44;;;3.54;100.00
7168;BME280;3625;51.762;14.320;2023-01-25T11:16:13;102347.56;;;3.42;100.00
7168;BME280;3625;51.762;14.320;2023-01-25T11:18:52;102380.59;;;3.62;100.00
7168;BME280;3625;51.762;14.320;2023-01-25T11:21:23;102329.31;;;3.44;100.00
7168;BME280;3625;51.762;14.320;2023-01-25T11:24:15;102375.56;;;3.68;100.00
7168;BME280;3625;51.762;14.320;2023-01-25T11:26:44;102267.84;;;3.09;100.00
7168;BME280;3625;51.762;14.320;2023-01-25T11:29:16;102301.91;;;3.34;100.00
7168;BME280;3625;51.762;14.320;2023-01-25T11:31:48;102363.53;;;3.73;100.00
7168;BME280;3625;51.762;14.320;2023-01-25T11:34:24;102341.91;;;3.54;100.00
7168;BME280;3625;51.762;14.320;2023-01-25T11:37:15;102353.28;;;3.56;100.00
7168;BME280;3625;51.762;14.320;2023-01-25T11:39:58;102341.91;;;3.54;100.00
7168;BME280;3625;51.762;14.320;2023-01-25T11:42:40;102258.00;;;3.01;100.00
7168;BME280;3625;51.762;14.320;2023-01-25T11:45:41;102340.44;;;3.62;100.00
7168;BME280;3625;51.762;14.320;2023-01-25T11:48:33;102331.69;;;3.61;100.00
7168;BME280;3625;51.762;14.320;2023-01-25T11:51:21;102328.13;;;3.59;100.00
7168;BME280;3625;51.762;14.320;2023-01-25T11:54:15;102317.78;;;3.62;100.00
7168;BME280;3625;51.762;14.320;2023-01-25T11:56:57;102306.41;;;3.62;100.00
7168;BME280;3625;51.762;14.320;2023-01-25T11:59:49;102310.75;;;3.61;100.00
7168;BME280;3625;51.762;14.320;2023-01-25T12:03:07;102242.97;;;3.20;100.00
7168;BME280;3625;51.762;14.320;2023-01-25T12:05:55;102297.34;;;3.52;100.00
7168;BME280;3625;51.762;14.320;2023-01-25T12:08:48;102292.00;;;3.49;100.00
7168;BME280;3625;51.762;14.320;2023-01-25T12:11:38;102291.88;;;3.46;100.00
7168;BME280;3625;51.762;14.320;2023-01-25T12:14:20;102284.13;;;3.49;100.00
7168;BME280;3625;51.762;14.320;2023-01-25T12:17:13;102283.38;;;3.52;100.00
7168;BME280;3625;51.762;14.320;2023-01-25T12:20:05;102282.34;;;3.48;100.00
7168;BME280;3625;51.762;14.320;2023-01-25T12:23:21;102280.31;;;3.39;100.00
7168;BME280;3625;51.762;14.320;2023-01-25T12:26:06;102273.25;;;3.37;100.00
7168;BME280;3625;51.762;14.320;2023-01-25T12:28:43;102263.91;;;3.44;100.00
7168;BME280;3625;51.762;14.320;2023-01-25T12:31:21;102148.50;;;2.87;100.00
7168;BME280;3625;51.762;14.320;2023-01-25T12:33:56;102227.88;;;3.36;100.00
7168;BME280;3625;51.762;14.320;2023-01-25T12:36:34;102147.63;;;2.86;100.00
7168;BME280;3625;51.762;14.320;2023-01-25T12:39:11;102214.22;;;3.20;100.00
7168;BME280;3625;51.762;14.320;2023-01-25T12:41:46;102244.25;;;3.31;100.00
7168;BME280;3625;51.762;14.320;2023-01-25T12:44:23;102237.13;;;3.27;100.00
7168;BME280;3625;51.762;14.320;2023-01-25T12:47:04;102206.75;;;3.07;100.00
7168;BME280;3625;51.762;14.320;2023-01-25T12:49:41;102224.78;;;3.23;100.00
7168;BME280;3625;51.762;14.320;2023-01-25T12:52:21;102228.22;;;3.22;100.00
7168;BME280;3625;51.762;14.320;2023-01-25T12:54:54;102194.16;;;2.96;100.00
7168;BME280;3625;51.762;14.320;2023-01-25T12:57:32;102229.72;;;3.15;100.00
7168;BME280;3625;51.762;14.320;2023-01-25T13:00:16;102125.59;;;2.56;100.00
7168;BME280;3625;51.762;14.320;2023-01-25T13:03:00;102221.75;;;3.12;100.00
7168;BME280;3625;51.762;14.320;2023-01-25T13:05:38;102212.19;;;3.13;100.00
7168;BME280;3625;51.762;14.320;2023-01-25T13:08:22;102204.34;;;3.13;100.00
7168;BME280;3625;51.762;14.320;2023-01-25T13:11:11;102145.81;;;2.84;100.00
7168;BME280;3625;51.762;14.320;2023-01-25T13:13:40;102194.06;;;3.17;100.00
7168;BME280;3625;51.762;14.320;2023-01-25T13:16:39;102195.03;;;3.21;100.00
7168;BME280;3625;51.762;14.320;2023-01-25T13:19:21;102195.91;;;3.20;100.00
7168;BME280;3625;51.762;14.320;2023-01-25T13:21:50;102068.91;;;2.53;100.00
7168;BME280;3625;51.762;14.320;2023-01-25T13:24:24;102179.91;;;3.12;100.00
7168;BME280;3625;51.762;14.320;2023-01-25T13:27:02;102179.16;;;3.15;100.00
7168;BME280;3625;51.762;14.320;2023-01-25T13:29:56;102147.94;;;2.95;100.00
7168;BME280;3625;51.762;14.320;2023-01-25T13:33:02;102184.59;;;3.21;100.00
7168;BME280;3625;51.762;14.320;2023-01-25T13:35:42;102169.84;;;3.23;100.00
7168;BME280;3625;51.762;14.320;2023-01-25T13:38:31;102169.63;;;3.17;100.00